Time;durP1;ratioP1;P1;durP2;ratioP2;P2;SDS_P1;SDS_P2;PMS_P1;PMS_P2;Temp;Humidity;BMP_temperature;BMP_pressure;BME280_temperature;BME280_humidity;BME280_pressure;Samples;Min_cycle;Max_cycle;Signal;HPM_P1;HPM_P2
2022/05/16 00:02:04;;;;;;;5.63;3.90;;;25.50;61.60;;;;;;4998144;28;20833;-90
2022/05/16 00:04:33;;;;;;;3.67;3.20;;;25.50;61.70;;;;;;4982188;28;20449;-91
2022/05/16 00:06:59;;;;;;;4.73;3.67;;;25.40;61.60;;;;;;4981561;28;20424;-91
2022/05/16 00:09:27;;;;;;;5.83;3.80;;;25.40;61.60;;;;;;4981842;28;20453;-91
2022/05/16 00:11:52;;;;;;;4.63;3.27;;;25.40;62.60;;;;;;4997825;28;20920;-92
2022/05/16 00:14:19;;;;;;;7.60;3.50;;;25.40;61.90;;;;;;4965833;28;20476;-91
2022/05/16 00:16:45;;;;;;;4.60;2.90;;;25.40;61.90;;;;;;4981481;28;20213;-91
2022/05/16 00:19:12;;;;;;;4.53;3.40;;;25.40;61.90;;;;;;4981325;28;21218;-92
2022/05/16 00:21:41;;;;;;;4.10;3.07;;;25.30;61.90;;;;;;4981342;28;20498;-91
2022/05/16 00:24:09;;;;;;;3.60;3.20;;;25.30;61.90;;;;;;4982305;28;20421;-91
2022/05/16 00:26:35;;;;;;;5.00;3.50;;;25.30;62.00;;;;;;4981532;28;20530;-92
2022/05/16 00:29:02;;;;;;;6.33;3.20;;;25.30;62.10;;;;;;4997836;28;20217;-91
2022/05/16 00:31:28;;;;;;;4.70;3.20;;;25.20;62.10;;;;;;4980789;28;20435;-91
2022/05/16 00:33:54;;;;;;;4.77;3.40;;;25.20;62.10;;;;;;4981342;28;20448;-91
2022/05/16 00:36:22;;;;;;;4.77;3.63;;;25.20;62.20;;;;;;4981800;28;20433;-90
2022/05/16 00:38:53;;;;;;;5.13;3.50;;;25.20;62.20;;;;;;4981076;28;20547;-92
2022/05/16 00:41:20;;;;;;;6.20;3.40;;;25.20;62.20;;;;;;4997164;28;20494;-92
2022/05/16 00:43:53;;;;;;;3.80;3.00;;;25.10;62.20;;;;;;4997412;28;20456;-91
2022/05/16 00:46:22;;;;;;;4.30;3.40;;;25.10;62.30;;;;;;4981134;28;20507;-91
2022/05/16 00:48:48;;;;;;;5.70;3.70;;;25.10;62.40;;;;;;4996887;28;20444;-91
2022/05/16 00:51:25;;;;;;;4.17;3.10;;;25.10;62.50;;;;;;4997279;28;20441;-90
2022/05/16 00:54:00;;;;;;;4.20;2.73;;;25.00;62.40;;;;;;4964921;28;20428;-91
2022/05/16 00:56:28;;;;;;;3.80;3.27;;;25.00;62.50;;;;;;4996764;28;20412;-91
2022/05/16 00:58:55;;;;;;;4.00;2.97;;;25.00;62.60;;;;;;4980756;28;20473;-91
2022/05/16 01:06:57;;;;;;;4.80;3.23;;;24.90;62.60;;;;;;4977133;28;20504;-91
2022/05/16 01:09:26;;;;;;;4.00;3.10;;;24.90;62.70;;;;;;4993271;28;20430;-91
2022/05/16 01:11:55;;;;;;;5.37;3.40;;;24.90;62.70;;;;;;4993535;28;20917;-91
2022/05/16 01:14:45;;;;;;;4.30;3.03;;;24.90;62.80;;;;;;4993673;28;20199;-91
2022/05/16 01:17:12;;;;;;;6.00;3.83;;;24.80;62.70;;;;;;4977373;28;20806;-91
2022/05/16 01:19:39;;;;;;;4.90;3.70;;;24.80;62.80;;;;;;4960984;28;20995;-91
2022/05/16 01:22:28;;;;;;;5.13;3.67;;;24.80;62.90;;;;;;4961257;28;20430;-91
2022/05/16 01:25:06;;;;;;;4.27;3.70;;;24.80;62.90;;;;;;4972702;28;20462;-92
2022/05/16 01:27:43;;;;;;;4.77;3.47;;;24.70;62.90;;;;;;4960940;28;20411;-91
2022/05/16 01:30:18;;;;;;;6.07;3.93;;;24.70;62.90;;;;;;4977699;28;20450;-91
2022/05/16 01:32:46;;;;;;;4.10;3.73;;;24.70;63.00;;;;;;4945149;28;20438;-91
2022/05/16 01:35:12;;;;;;;4.40;3.87;;;24.70;63.00;;;;;;4958335;28;20461;-91
2022/05/16 01:40:25;;;;;;;5.47;4.10;;;24.70;63.10;;;;;;4979732;28;20541;-91
2022/05/16 01:42:51;;;;;;;4.07;3.50;;;24.60;63.00;;;;;;4995502;28;20461;-90
2022/05/16 01:45:17;;;;;;;5.97;3.63;;;24.60;63.10;;;;;;4979211;28;20401;-91
2022/05/16 01:47:45;;;;;;;6.37;3.67;;;24.60;63.20;;;;;;4995853;28;20532;-91
2022/05/16 01:50:11;;;;;;;3.93;3.47;;;24.50;63.00;;;;;;4979833;28;20198;-91
2022/05/16 01:52:39;;;;;;;9.07;3.97;;;24.50;63.00;;;;;;4996113;28;20812;-91
2022/05/16 01:55:06;;;;;;;3.30;3.00;;;24.50;63.10;;;;;;4980255;28;20520;-91
2022/05/16 01:57:32;;;;;;;6.77;3.77;;;24.50;63.20;;;;;;4996258;28;20572;-91
2022/05/16 01:59:58;;;;;;;4.13;3.30;;;24.50;63.20;;;;;;4996025;28;20449;-91
2022/05/16 02:02:24;;;;;;;5.00;3.53;;;24.50;63.30;;;;;;4995882;28;20417;-91
2022/05/16 02:04:50;;;;;;;6.40;3.50;;;24.50;63.30;;;;;;4995806;28;20210;-91
2022/05/16 02:07:15;;;;;;;6.10;3.60;;;24.40;63.30;;;;;;4995757;28;20171;-91
2022/05/16 02:09:42;;;;;;;4.00;3.70;;;24.40;63.30;;;;;;4963270;28;20734;-91
2022/05/16 02:12:09;;;;;;;3.30;3.00;;;24.40;63.30;;;;;;4979737;28;20457;-91
2022/05/16 02:14:35;;;;;;;3.80;3.47;;;24.30;63.20;;;;;;4995528;28;20893;-91
2022/05/16 02:17:01;;;;;;;6.20;3.37;;;24.30;63.30;;;;;;4995651;28;20437;-91
2022/05/16 02:19:29;;;;;;;3.93;3.20;;;24.30;63.30;;;;;;4979273;28;20536;-91
2022/05/16 02:24:42;;;;;;;5.87;3.40;;;24.30;63.50;;;;;;4975596;28;20461;-91
2022/05/16 02:27:13;;;;;;;4.77;3.27;;;24.20;63.40;;;;;;4944142;28;20458;-91
2022/05/16 02:29:39;;;;;;;4.97;3.40;;;24.20;63.40;;;;;;4960167;28;20398;-91
2022/05/16 02:32:05;;;;;;;4.20;3.80;;;24.20;63.50;;;;;;4975743;28;20448;-91
2022/05/16 02:34:34;;;;;;;3.97;3.57;;;24.20;63.60;;;;;;4959854;28;20418;-90
2022/05/16 02:37:03;;;;;;;4.33;3.37;;;24.20;63.60;;;;;;4984351;28;20491;-91
2022/05/16 02:39:29;;;;;;;3.67;3.00;;;24.20;63.70;;;;;;4995104;28;20472;-91
2022/05/16 02:41:54;;;;;;;3.87;3.40;;;24.10;63.60;;;;;;4978924;28;20495;-91
2022/05/16 02:44:21;;;;;;;3.83;3.30;;;24.10;63.70;;;;;;4995011;28;20745;-91
2022/05/16 02:46:50;;;;;;;5.53;3.60;;;24.10;63.70;;;;;;4995884;28;20189;-91
2022/05/16 02:49:16;;;;;;;3.97;2.70;;;24.10;63.80;;;;;;4994906;28;20437;-91
2022/05/16 02:51:42;;;;;;;4.17;3.20;;;24.10;63.80;;;;;;4979026;28;20182;-91
2022/05/16 02:54:10;;;;;;;3.80;3.33;;;24.00;63.80;;;;;;4995578;28;20435;-91
2022/05/16 02:56:41;;;;;;;3.83;3.43;;;24.00;64.60;;;;;;4998761;28;20421;-90
2022/05/16 02:59:06;;;;;;;4.57;3.30;;;24.00;63.90;;;;;;4982901;28;20527;-91
2022/05/16 03:01:36;;;;;;;4.70;3.57;;;24.00;63.90;;;;;;4999857;28;20449;-91
2022/05/16 03:04:02;;;;;;;5.47;4.27;;;24.00;63.90;;;;;;4966960;28;20499;-91
2022/05/16 03:06:28;;;;;;;5.80;3.30;;;23.90;64.70;;;;;;4982791;28;20539;-91
2022/05/16 03:08:56;;;;;;;5.17;3.20;;;23.90;64.00;;;;;;4999016;28;20425;-91
2022/05/16 03:11:22;;;;;;;5.13;3.07;;;23.90;64.00;;;;;;4982646;28;20491;-91
2022/05/16 03:13:49;;;;;;;5.73;3.90;;;23.90;64.00;;;;;;4982587;28;20221;-91
2022/05/16 03:16:15;;;;;;;4.13;3.20;;;23.80;63.90;;;;;;4982643;28;20221;-91
2022/05/16 03:18:41;;;;;;;3.00;2.67;;;23.80;64.00;;;;;;4998796;28;20535;-91
2022/05/16 03:21:07;;;;;;;4.67;2.87;;;23.80;64.00;;;;;;4982930;28;20420;-91
2022/05/16 03:23:33;;;;;;;3.70;3.20;;;23.80;64.10;;;;;;4998634;28;20443;-91
2022/05/16 03:25:59;;;;;;;6.10;3.60;;;23.80;64.10;;;;;;4982488;28;20252;-91
2022/05/16 03:28:27;;;;;;;3.50;3.17;;;23.80;64.20;;;;;;4979200;28;20794;-91
2022/05/16 03:30:57;;;;;;;2.80;2.60;;;23.80;64.20;;;;;;4947143;28;20500;-91
2022/05/16 03:33:24;;;;;;;3.43;2.87;;;23.70;64.20;;;;;;4979215;28;21114;-91
2022/05/16 03:35:55;;;;;;;4.60;3.13;;;23.70;64.20;;;;;;4963068;28;20452;-91
2022/05/16 03:41:11;;;;;;;4.93;3.43;;;23.70;64.30;;;;;;4999068;28;20503;-91
2022/05/16 03:43:41;;;;;;;4.80;3.00;;;23.60;64.20;;;;;;4982200;28;20741;-92
2022/05/16 03:46:08;;;;;;;3.37;3.07;;;23.70;64.40;;;;;;4998532;28;20815;-91
2022/05/16 03:48:34;;;;;;;4.83;2.90;;;23.60;64.30;;;;;;4964645;28;20763;-91
2022/05/16 03:51:02;;;;;;;4.43;3.10;;;23.50;64.20;;;;;;4965402;28;20483;-91
2022/05/16 03:53:28;;;;;;;4.90;3.50;;;23.50;64.30;;;;;;4982217;28;20437;-91
2022/05/16 03:55:55;;;;;;;4.00;2.80;;;23.50;64.30;;;;;;4982261;28;20500;-91
2022/05/16 03:58:20;;;;;;;3.87;3.37;;;23.50;64.40;;;;;;4965821;28;20794;-92
2022/05/16 04:00:46;;;;;;;3.40;3.10;;;23.50;64.40;;;;;;4998131;28;20441;-90
2022/05/16 04:03:12;;;;;;;4.77;3.47;;;23.50;64.50;;;;;;4981917;28;20453;-91
2022/05/16 04:05:38;;;;;;;3.73;3.30;;;23.50;64.60;;;;;;4965618;28;20961;-91
2022/05/16 04:08:05;;;;;;;5.10;3.33;;;23.40;64.50;;;;;;4980812;28;20476;-91
2022/05/16 04:10:31;;;;;;;3.47;2.80;;;23.40;64.60;;;;;;4966558;28;20197;-91
2022/05/16 04:12:57;;;;;;;4.60;2.73;;;23.40;64.60;;;;;;4978465;28;20434;-91
2022/05/16 04:15:25;;;;;;;3.30;3.00;;;23.40;64.60;;;;;;4978505;28;20458;-90
2022/05/16 04:17:51;;;;;;;4.07;3.30;;;23.40;64.70;;;;;;4961938;28;20422;-91
2022/05/16 04:20:19;;;;;;;3.60;3.23;;;23.30;64.70;;;;;;4978892;28;20469;-91
2022/05/16 04:22:46;;;;;;;4.00;3.60;;;23.30;64.70;;;;;;4946155;28;20436;-91
2022/05/16 04:25:19;;;;;;;4.53;3.00;;;23.30;64.80;;;;;;4962080;28;20474;-91
2022/05/16 04:27:45;;;;;;;4.80;3.77;;;23.30;64.80;;;;;;4962096;28;20434;-91
2022/05/16 04:30:12;;;;;;;5.43;3.03;;;23.30;64.90;;;;;;4962135;28;20523;-91
2022/05/16 04:32:40;;;;;;;3.63;3.00;;;23.30;65.00;;;;;;4987476;28;20452;-89
2022/05/16 04:35:07;;;;;;;3.03;2.80;;;23.30;65.00;;;;;;4997248;28;20417;-92
2022/05/16 04:37:35;;;;;;;3.27;2.80;;;23.30;65.00;;;;;;4981179;28;20468;-91
2022/05/16 04:40:06;;;;;;;4.10;2.63;;;23.20;64.90;;;;;;4980971;28;20465;-91
2022/05/16 04:42:41;;;;;;;3.70;3.40;;;23.20;65.00;;;;;;4997080;28;20512;-90
2022/05/16 04:45:15;;;;;;;5.17;2.93;;;23.20;65.10;;;;;;4997021;28;20470;-90
2022/05/16 04:47:43;;;;;;;3.77;3.20;;;23.20;65.10;;;;;;4997474;28;20416;-91
2022/05/16 04:50:13;;;;;;;3.83;3.17;;;23.10;65.00;;;;;;4980927;28;20907;-90
2022/05/16 04:52:40;;;;;;;3.50;3.20;;;23.10;65.20;;;;;;4980822;28;20425;-91
2022/05/16 04:55:06;;;;;;;3.97;3.40;;;23.10;65.20;;;;;;4996822;28;20468;-91
2022/05/16 04:57:37;;;;;;;5.30;3.20;;;23.10;65.20;;;;;;4980857;28;20421;-91
2022/05/16 05:00:07;;;;;;;3.47;3.13;;;23.10;65.30;;;;;;4980576;28;20484;-91
2022/05/16 05:02:33;;;;;;;3.83;3.43;;;23.10;65.40;;;;;;4996773;28;20780;-90
2022/05/16 05:05:00;;;;;;;4.20;3.07;;;23.10;65.50;;;;;;4997547;28;20501;-92
2022/05/16 05:07:26;;;;;;;3.53;3.23;;;23.00;65.50;;;;;;4981180;28;20517;-91
2022/05/16 05:15:21;;;;;;;3.10;2.70;;;23.00;65.80;;;;;;4988256;28;20433;-92
2022/05/16 05:17:47;;;;;;;4.73;3.03;;;23.00;65.80;;;;;;4977073;28;20446;-92
2022/05/16 05:20:14;;;;;;;5.00;3.63;;;23.00;65.90;;;;;;4977359;28;20598;-92
2022/05/16 05:22:45;;;;;;;3.93;3.20;;;23.00;66.00;;;;;;4963329;28;20273;-92
2022/05/16 05:25:15;;;;;;;4.70;3.37;;;23.00;66.00;;;;;;4964278;28;20764;-91
2022/05/16 05:27:42;;;;;;;3.07;2.77;;;22.90;66.10;;;;;;4980469;28;20417;-90
2022/05/16 05:30:12;;;;;;;7.40;3.10;;;23.00;66.20;;;;;;4996747;28;20422;-93
2022/05/16 05:32:38;;;;;;;4.57;3.40;;;22.90;66.20;;;;;;4980238;28;20428;-89
2022/05/16 05:35:05;;;;;;;4.07;3.43;;;22.90;66.30;;;;;;4997378;28;20509;-94
2022/05/16 05:37:35;;;;;;;4.37;3.43;;;22.90;66.30;;;;;;4997587;28;20433;-93
2022/05/16 05:40:04;;;;;;;4.37;3.10;;;22.90;66.40;;;;;;4980063;28;20504;-92
2022/05/16 05:42:34;;;;;;;3.47;3.10;;;22.90;66.50;;;;;;4982175;28;20492;-94
2022/05/16 05:45:03;;;;;;;3.00;2.67;;;22.90;66.50;;;;;;4976248;28;20899;-94
2022/05/16 05:47:29;;;;;;;3.33;3.03;;;22.90;66.60;;;;;;4992749;28;20437;-93
2022/05/16 05:49:55;;;;;;;3.53;3.23;;;22.90;66.70;;;;;;4980412;28;20437;-93
2022/05/16 05:52:21;;;;;;;3.50;3.00;;;22.90;66.70;;;;;;4980540;28;20809;-92
2022/05/16 05:54:50;;;;;;;3.87;2.93;;;22.90;66.90;;;;;;4994767;28;20417;-93
2022/05/16 05:57:17;;;;;;;5.47;3.17;;;22.90;66.90;;;;;;5010862;28;20455;-94
2022/05/16 05:59:43;;;;;;;4.47;3.10;;;22.90;66.90;;;;;;4995508;28;20463;-95
2022/05/16 06:02:34;;;;;;;3.57;3.27;;;22.90;67.00;;;;;;4995514;28;20444;-94
2022/05/16 06:05:00;;;;;;;3.20;2.90;;;22.80;66.90;;;;;;4994487;28;20425;-94
2022/05/16 06:07:32;;;;;;;4.03;3.10;;;22.80;66.90;;;;;;4996698;28;20498;-93
2022/05/16 06:09:58;;;;;;;3.70;3.30;;;22.80;66.90;;;;;;4979077;28;20877;-93
2022/05/16 06:12:51;;;;;;;5.93;3.20;;;22.80;66.90;;;;;;4995511;28;20523;-93
2022/05/16 06:15:17;;;;;;;4.23;2.70;;;22.80;66.80;;;;;;4978449;28;20544;-93
2022/05/16 06:18:09;;;;;;;3.07;2.70;;;22.80;66.90;;;;;;4978661;28;21119;-93
2022/05/16 06:20:35;;;;;;;4.60;3.03;;;22.80;66.90;;;;;;4979487;28;20520;-93
2022/05/16 06:27:20;;;;;;;3.13;2.80;;;22.80;66.90;;;;;;4994515;28;20435;-95
2022/05/16 06:30:08;;;;;;;4.87;3.40;;;22.70;66.80;;;;;;4994627;28;20413;-95
2022/05/16 06:32:34;;;;;;;3.33;2.83;;;22.80;67.00;;;;;;4987445;28;20417;-95
2022/05/16 06:35:00;;;;;;;3.80;3.20;;;22.80;67.10;;;;;;4995349;28;20481;-96
2022/05/16 06:37:52;;;;;;;3.30;3.00;;;22.80;67.10;;;;;;4978650;28;20834;-93
2022/05/16 06:40:20;;;;;;;3.40;2.70;;;22.80;67.00;;;;;;4995582;28;20456;-94
2022/05/16 06:42:46;;;;;;;3.67;3.10;;;22.70;66.80;;;;;;4994134;28;20443;-89
2022/05/16 06:45:13;;;;;;;3.90;3.07;;;22.70;66.80;;;;;;4978526;28;20435;-95
2022/05/16 06:47:39;;;;;;;3.30;3.00;;;22.80;66.80;;;;;;4995379;28;20483;-95
2022/05/16 06:50:06;;;;;;;4.90;3.10;;;22.80;66.80;;;;;;4995489;28;20437;-92
2022/05/16 06:52:32;;;;;;;4.40;3.20;;;22.80;66.80;;;;;;4990631;28;20999;-93
2022/05/16 06:54:58;;;;;;;3.70;3.03;;;22.80;66.90;;;;;;4970739;28;20425;-95
2022/05/16 06:57:24;;;;;;;4.27;2.97;;;22.80;66.90;;;;;;4995198;28;20445;-94
2022/05/16 06:59:50;;;;;;;5.63;3.13;;;22.80;66.90;;;;;;4991133;28;20844;-95
2022/05/16 07:02:16;;;;;;;3.60;2.87;;;22.80;67.00;;;;;;4991984;28;20433;-90
2022/05/16 07:04:42;;;;;;;3.80;3.27;;;22.80;66.90;;;;;;4995137;28;20476;-95
2022/05/16 07:07:08;;;;;;;5.43;3.17;;;22.80;66.90;;;;;;4978996;28;20429;-96
2022/05/16 07:09:41;;;;;;;4.50;2.93;;;22.80;66.80;;;;;;4995102;28;20461;-94
2022/05/16 07:12:09;;;;;;;4.73;2.93;;;22.80;66.80;;;;;;4979041;28;20432;-95
2022/05/16 07:14:38;;;;;;;3.23;2.90;;;22.80;66.70;;;;;;4995498;28;20425;-95
2022/05/16 07:17:04;;;;;;;3.30;3.00;;;22.80;66.70;;;;;;4995155;28;20530;-95
2022/05/16 07:19:34;;;;;;;4.30;3.30;;;22.80;66.70;;;;;;4962109;28;21038;-93
2022/05/16 07:22:03;;;;;;;3.70;3.10;;;22.70;66.60;;;;;;4978536;28;20458;-90
2022/05/16 07:24:29;;;;;;;3.67;3.23;;;22.80;66.70;;;;;;4995163;28;20429;-93
2022/05/16 07:29:40;;;;;;;5.90;2.97;;;22.80;66.70;;;;;;4995692;28;20947;-96
2022/05/16 07:32:11;;;;;;;4.90;3.00;;;22.80;66.70;;;;;;4979246;28;20468;-95
2022/05/16 07:34:39;;;;;;;3.50;3.20;;;22.80;66.70;;;;;;4994376;28;20857;-94
2022/05/16 07:37:05;;;;;;;8.43;3.10;;;22.80;66.70;;;;;;4995332;28;20435;-94
2022/05/16 07:39:31;;;;;;;3.00;2.70;;;22.80;66.70;;;;;;4995646;28;20480;-94
2022/05/16 07:41:59;;;;;;;3.50;3.20;;;22.80;66.60;;;;;;4980918;28;20435;-95
2022/05/16 07:44:27;;;;;;;3.70;3.00;;;22.80;66.60;;;;;;4998150;28;20746;-93
2022/05/16 07:46:54;;;;;;;5.40;3.83;;;22.80;66.60;;;;;;4982176;28;20515;-93
2022/05/16 07:49:21;;;;;;;7.43;3.67;;;22.80;66.70;;;;;;4998113;28;20547;-94
2022/05/16 07:51:47;;;;;;;4.40;3.17;;;22.80;66.70;;;;;;4998379;28;20515;-94
2022/05/16 07:54:13;;;;;;;4.27;3.20;;;22.80;66.80;;;;;;4965700;28;20644;-96
2022/05/16 07:56:39;;;;;;;3.43;2.97;;;22.80;66.80;;;;;;4995367;28;20465;-94
2022/05/16 07:59:06;;;;;;;4.53;3.20;;;22.80;66.80;;;;;;4993556;28;20484;-96
2022/05/16 08:01:33;;;;;;;5.00;3.20;;;22.80;66.90;;;;;;4981523;28;20421;-96
2022/05/16 08:03:59;;;;;;;4.23;3.10;;;22.80;67.00;;;;;;4979341;28;20432;-96
2022/05/16 08:06:27;;;;;;;3.67;3.37;;;22.80;67.00;;;;;;4981431;28;20786;-95
2022/05/16 08:11:43;;;;;;;4.37;2.97;;;22.80;67.20;;;;;;4999582;28;20429;-96
2022/05/16 08:14:12;;;;;;;6.80;3.40;;;22.80;67.30;;;;;;4998220;28;20488;-96
2022/05/16 08:16:41;;;;;;;4.80;3.33;;;22.70;67.40;;;;;;4998551;28;20428;-96
2022/05/16 08:19:22;;;;;;;4.30;2.70;;;22.80;67.70;;;;;;4980350;28;21152;-96
2022/05/16 08:21:53;;;;;;;3.90;3.17;;;22.70;67.80;;;;;;4978326;28;20528;-96
2022/05/16 08:24:19;;;;;;;4.20;3.80;;;22.70;69.00;;;;;;4981397;28;20510;-94
2022/05/16 08:26:48;;;;;;;5.23;3.17;;;22.80;68.80;;;;;;4997804;28;20465;-96
2022/05/16 08:29:14;;;;;;;8.20;3.10;;;22.70;69.50;;;;;;4998296;28;20465;-96
2022/05/16 08:31:43;;;;;;;9.03;3.80;;;22.70;70.00;;;;;;4992391;28;20929;-96
2022/05/16 08:34:09;;;;;;;6.27;4.10;;;22.70;70.40;;;;;;4980340;28;20865;-96
2022/05/16 08:42:08;;;;;;;3.50;3.20;;;22.70;70.90;;;;;;4991601;28;20421;-95
2022/05/16 08:44:52;;;;;;;4.47;3.10;;;22.80;71.20;;;;;;4997909;28;20433;-96
2022/05/16 08:47:55;;;;;;;6.10;3.73;;;22.70;71.30;;;;;;4997079;28;21422;-96
2022/05/16 08:50:49;;;;;;;4.27;3.37;;;22.70;71.50;;;;;;4995952;28;20455;-94
2022/05/16 08:53:29;;;;;;;5.23;3.83;;;22.70;71.80;;;;;;4993431;28;20519;-94
2022/05/16 08:56:05;;;;;;;5.30;3.10;;;22.70;72.00;;;;;;4996864;28;20639;-94
2022/05/16 08:58:41;;;;;;;7.97;3.97;;;22.70;72.20;;;;;;4997687;28;20475;-92
2022/05/16 09:01:11;;;;;;;5.40;4.30;;;22.70;72.30;;;;;;4997250;28;20429;-93
2022/05/16 09:03:52;;;;;;;5.00;3.60;;;22.70;72.40;;;;;;4994922;28;20436;-93
2022/05/16 09:06:35;;;;;;;6.97;3.40;;;22.70;72.50;;;;;;4996429;28;20428;-94
2022/05/16 09:09:11;;;;;;;7.60;3.87;;;22.70;72.60;;;;;;4989728;28;20715;-95
2022/05/16 09:11:40;;;;;;;6.33;3.50;;;22.70;72.90;;;;;;4977970;28;20525;-94
2022/05/16 09:14:16;;;;;;;5.27;3.50;;;22.70;73.00;;;;;;4996647;28;20424;-95
2022/05/16 09:16:57;;;;;;;5.77;3.50;;;22.70;73.00;;;;;;4996407;28;20461;-91
2022/05/16 09:19:51;;;;;;;4.33;3.60;;;22.70;73.10;;;;;;4957213;28;20534;-95
2022/05/16 09:22:39;;;;;;;4.17;3.77;;;22.70;73.10;;;;;;4995672;28;20442;-95
2022/05/16 09:25:19;;;;;;;4.07;3.53;;;22.70;73.10;;;;;;4989540;28;20808;-94
2022/05/16 09:30:45;;;;;;;10.97;4.33;;;22.70;73.00;;;;;;4990501;28;20867;-95
2022/05/16 09:33:21;;;;;;;4.57;4.17;;;22.70;73.00;;;;;;4994434;28;20450;-96
2022/05/16 09:35:50;;;;;;;5.23;3.53;;;22.70;72.90;;;;;;4994797;28;20476;-93
2022/05/16 09:38:18;;;;;;;6.47;3.90;;;22.70;72.80;;;;;;4995606;28;20432;-95
2022/05/16 09:41:26;;;;;;;5.17;4.13;;;22.70;72.60;;;;;;4996705;28;20540;-95
2022/05/16 09:44:03;;;;;;;4.33;3.17;;;22.70;72.30;;;;;;4985220;28;20433;-96
2022/05/16 09:46:35;;;;;;;3.70;3.23;;;22.70;72.20;;;;;;4963965;28;20745;-94
2022/05/16 09:49:26;;;;;;;5.80;3.23;;;22.70;72.10;;;;;;4993268;28;22184;-92
2022/05/16 09:51:57;;;;;;;4.17;3.67;;;22.80;72.20;;;;;;4995138;28;20443;-92
2022/05/16 09:54:30;;;;;;;3.60;3.30;;;22.80;72.40;;;;;;4979645;28;20473;-92
2022/05/16 09:57:21;;;;;;;5.77;3.87;;;22.80;72.60;;;;;;4979575;28;20436;-93
2022/05/16 09:59:47;;;;;;;3.90;3.20;;;22.90;73.00;;;;;;4988464;28;20567;-94
2022/05/16 10:02:33;;;;;;;4.10;3.40;;;22.90;73.20;;;;;;4995787;28;20510;-93
2022/05/16 10:05:29;;;;;;;5.43;3.63;;;22.90;73.20;;;;;;4962169;28;20885;-95
2022/05/16 10:08:02;;;;;;;5.10;3.30;;;23.00;73.50;;;;;;4995890;28;20432;-95
2022/05/16 10:10:39;;;;;;;4.40;4.00;;;23.00;73.70;;;;;;4987135;28;20452;-95
2022/05/16 10:13:10;;;;;;;6.40;3.63;;;23.00;74.10;;;;;;4996373;28;20871;-95
2022/05/16 10:15:40;;;;;;;5.97;3.63;;;23.00;74.00;;;;;;4992236;28;20460;-95
2022/05/16 10:18:12;;;;;;;3.70;3.30;;;23.00;74.10;;;;;;4976389;28;20437;-93
2022/05/16 10:20:53;;;;;;;5.87;3.60;;;23.10;74.40;;;;;;4991297;28;20433;-95
2022/05/16 10:23:29;;;;;;;4.53;3.73;;;23.10;74.70;;;;;;4995403;28;20738;-94
2022/05/16 10:26:01;;;;;;;4.00;3.60;;;23.10;74.90;;;;;;4995734;28;20544;-94
2022/05/16 10:28:43;;;;;;;4.83;3.67;;;23.10;74.90;;;;;;4995850;28;20441;-94
2022/05/16 10:34:18;;;;;;;6.33;3.80;;;23.20;75.00;;;;;;4990387;28;20463;-93
2022/05/16 10:36:53;;;;;;;4.47;3.67;;;23.20;75.10;;;;;;4995396;28;20444;-93
2022/05/16 10:39:29;;;;;;;8.20;3.93;;;23.30;75.40;;;;;;4994729;28;20800;-91
2022/05/16 10:42:27;;;;;;;4.73;4.00;;;23.30;75.40;;;;;;4995709;28;20417;-93
2022/05/16 10:45:05;;;;;;;3.90;3.27;;;23.30;75.50;;;;;;4977808;28;20453;-94
2022/05/16 10:47:45;;;;;;;4.97;3.73;;;23.40;75.80;;;;;;4995616;28;20424;-90
2022/05/16 10:50:42;;;;;;;5.10;3.70;;;23.40;75.90;;;;;;4978067;28;20476;-90
2022/05/16 10:53:17;;;;;;;4.50;3.50;;;23.40;75.80;;;;;;4990656;28;20464;-93
2022/05/16 10:56:23;;;;;;;8.37;3.53;;;23.40;75.60;;;;;;4992910;28;20433;-92
2022/05/16 10:59:14;;;;;;;4.50;3.90;;;23.50;75.80;;;;;;4993780;28;20444;-91
2022/05/16 11:01:47;;;;;;;4.50;3.53;;;23.50;75.90;;;;;;4995190;28;20439;-91
2022/05/16 11:04:36;;;;;;;4.37;3.97;;;23.50;76.10;;;;;;4991125;28;20452;-92
2022/05/16 11:07:16;;;;;;;4.53;3.53;;;23.60;76.30;;;;;;4994407;28;20457;-94
2022/05/16 11:09:59;;;;;;;3.60;3.27;;;23.60;76.30;;;;;;4994340;28;20448;-93
2022/05/16 11:12:44;;;;;;;5.07;3.60;;;23.60;76.30;;;;;;4976124;28;20456;-94
2022/05/16 11:15:45;;;;;;;5.03;3.60;;;23.60;76.40;;;;;;4991205;28;20491;-94
2022/05/16 11:18:20;;;;;;;5.10;3.40;;;23.70;76.60;;;;;;4979937;28;20442;-90
2022/05/16 11:20:56;;;;;;;3.57;3.27;;;23.70;76.60;;;;;;4996896;28;20413;-94
2022/05/16 11:23:29;;;;;;;5.50;3.40;;;23.80;76.60;;;;;;4998697;28;20487;-92
2022/05/16 11:26:20;;;;;;;5.50;3.40;;;23.80;76.30;;;;;;4998420;28;20425;-94
2022/05/16 11:29:21;;;;;;;4.40;3.33;;;23.80;75.90;;;;;;4995473;28;20440;-94
2022/05/16 11:31:58;;;;;;;5.33;3.20;;;23.90;75.80;;;;;;4982189;28;20466;-93
2022/05/16 11:34:41;;;;;;;6.93;4.00;;;23.90;75.70;;;;;;4982387;28;20444;-93
2022/05/16 11:37:17;;;;;;;7.03;4.23;;;23.90;75.60;;;;;;5004257;28;20450;-93
2022/05/16 11:39:53;;;;;;;5.40;3.50;;;24.00;75.80;;;;;;4995666;28;20475;-92
2022/05/16 11:42:44;;;;;;;4.30;3.87;;;24.00;75.80;;;;;;4959864;28;20457;-91
2022/05/16 11:45:25;;;;;;;4.20;3.60;;;24.10;76.00;;;;;;4998871;28;20429;-94
2022/05/16 11:47:59;;;;;;;4.83;3.83;;;24.10;75.90;;;;;;4973463;28;20448;-94
2022/05/16 11:50:36;;;;;;;4.50;3.73;;;24.10;75.90;;;;;;4994375;28;20459;-94
2022/05/16 11:53:40;;;;;;;3.90;3.57;;;24.10;76.00;;;;;;5009098;28;20425;-93
2022/05/16 12:02:13;;;;;;;4.23;3.63;;;24.20;76.70;;;;;;4924513;29;20546;-96
2022/05/16 12:04:45;;;;;;;7.43;4.97;;;24.20;78.80;;;;;;4921300;29;20448;-90
2022/05/16 12:07:32;;;;;;;7.37;4.63;;;24.20;79.10;;;;;;4965321;28;20559;-95
2022/05/16 12:10:22;;;;;;;8.57;4.23;;;24.20;79.40;;;;;;4999536;28;20444;-96
2022/05/16 12:13:28;;;;;;;5.97;4.50;;;24.20;80.10;;;;;;4993162;28;20437;-96
2022/05/16 12:16:12;;;;;;;7.20;4.60;;;24.20;81.00;;;;;;4961135;28;20430;-94
2022/05/16 12:18:43;;;;;;;6.43;4.70;;;24.20;81.10;;;;;;4984741;28;21175;-94
2022/05/16 12:21:18;;;;;;;5.80;4.60;;;24.20;81.30;;;;;;4981479;28;20433;-93
2022/05/16 12:23:49;;;;;;;4.13;3.83;;;24.20;81.50;;;;;;4965453;28;20444;-95
2022/05/16 12:26:28;;;;;;;6.03;4.40;;;24.20;81.70;;;;;;4981612;28;20440;-95
2022/05/16 12:29:09;;;;;;;6.53;4.17;;;24.20;81.70;;;;;;4980368;28;20431;-94
2022/05/16 12:31:56;;;;;;;7.30;4.40;;;24.30;81.90;;;;;;4991984;28;20446;-95
2022/05/16 12:34:31;;;;;;;7.00;4.67;;;24.30;82.40;;;;;;4997216;28;20506;-93
2022/05/16 12:37:09;;;;;;;6.63;4.20;;;24.30;82.90;;;;;;4995666;28;20460;-91
2022/05/16 12:39:39;;;;;;;5.37;4.53;;;24.40;83.30;;;;;;4997191;28;20452;-94
2022/05/16 12:42:18;;;;;;;5.87;4.30;;;24.40;83.70;;;;;;4980164;28;20460;-93
2022/05/16 12:44:56;;;;;;;7.30;4.67;;;24.40;85.10;;;;;;4980951;28;20421;-92
2022/05/16 12:48:13;;;;;;;5.83;4.40;;;24.50;85.70;;;;;;4975710;28;20491;-94
2022/05/16 12:51:22;;;;;;;7.70;4.70;;;24.50;85.90;;;;;;4964714;28;20443;-94
2022/05/16 12:54:16;;;;;;;7.33;5.30;;;24.50;86.00;;;;;;4975982;28;20468;-93
2022/05/16 12:56:58;;;;;;;6.07;4.93;;;24.50;86.10;;;;;;4992991;28;20429;-93
2022/05/16 12:59:32;;;;;;;5.50;4.40;;;24.50;86.30;;;;;;4980567;28;20465;-93
2022/05/16 13:02:21;;;;;;;6.83;5.80;;;24.50;86.10;;;;;;4997390;28;20444;-95
2022/05/16 13:05:07;;;;;;;7.03;5.00;;;24.60;86.20;;;;;;4980813;28;20425;-95
2022/05/16 13:08:07;;;;;;;9.83;4.70;;;24.60;86.50;;;;;;4996558;28;20446;-94
2022/05/16 13:10:39;;;;;;;6.97;4.87;;;24.60;86.70;;;;;;4978522;28;20448;-91
2022/05/16 13:13:33;;;;;;;11.20;5.80;;;24.60;86.80;;;;;;4990656;28;20449;-94
2022/05/16 13:16:20;;;;;;;9.40;6.20;;;24.70;87.20;;;;;;4994897;28;20444;-96
2022/05/16 13:18:57;;;;;;;7.50;5.23;;;24.70;86.90;;;;;;4962892;28;20476;-96
2022/05/16 13:21:45;;;;;;;6.70;5.27;;;24.70;86.60;;;;;;4994271;28;20520;-94
2022/05/16 13:24:20;;;;;;;8.10;5.23;;;24.70;86.40;;;;;;4965319;28;20452;-93
2022/05/16 13:29:36;;;;;;;10.10;6.07;;;24.70;86.10;;;;;;4989204;28;20462;-95
2022/05/16 13:32:08;;;;;;;10.10;6.10;;;24.70;85.80;;;;;;4990544;28;20433;-94
2022/05/16 13:34:51;;;;;;;7.00;5.20;;;24.70;85.70;;;;;;4995150;28;20474;-96
2022/05/16 13:37:26;;;;;;;6.33;4.83;;;24.70;85.60;;;;;;4991794;28;20436;-96
2022/05/16 13:40:02;;;;;;;5.90;4.70;;;24.70;85.60;;;;;;4994623;28;20567;-95
2022/05/16 13:42:38;;;;;;;7.40;5.33;;;24.70;85.40;;;;;;4995639;28;20511;-94
2022/05/16 13:45:07;;;;;;;5.93;5.10;;;24.70;85.30;;;;;;4977048;28;20460;-94
2022/05/16 13:47:38;;;;;;;6.50;4.90;;;24.70;85.30;;;;;;4995343;28;20799;-96
2022/05/16 13:50:04;;;;;;;7.00;5.03;;;24.70;85.30;;;;;;4979893;28;20440;-95
2022/05/16 13:52:38;;;;;;;6.97;5.40;;;24.70;85.30;;;;;;4979457;28;20437;-94
2022/05/16 13:55:10;;;;;;;15.37;5.63;;;24.70;85.20;;;;;;4979796;28;20942;-94
2022/05/16 13:57:36;;;;;;;6.73;4.87;;;24.70;85.00;;;;;;4995952;28;20421;-96
2022/05/16 14:00:21;;;;;;;6.70;5.57;;;24.70;85.00;;;;;;4994444;28;20839;-95
2022/05/16 14:02:56;;;;;;;6.57;4.73;;;24.70;84.90;;;;;;4980022;28;20906;-95
2022/05/16 14:05:38;;;;;;;6.47;4.70;;;24.70;84.90;;;;;;4980352;28;20453;-93